Norton Canes, United Kingdom
Current Conditions -  °F | °C
As of 2:20 PM on Saturday 22 Nov 2014 (Local Time) from EGBB Reporting Station
Broken Clouds Broken Clouds  
Wind Chill: 57°   Ceiling: 2500
Heat Index: 57°   Visibility: 6mi
Dew Point: 54°   Wind: 2mph
Humidity: 88%   Direction: NA
Pressure: 29.85"   Gusts: NA
Location:  52.67°N, 1.96°W
Report Text: EGBB 221420Z VRB02KT 9999 FEW010 BKN025 BKN049TCU 14/12 Q1011
Loading
Personal Weather Stations






























Interactive Weather Map New forecast layout! Learn more

10-Day Weather Forecast

Advertisements
Track Severe Weather on mobile